sensor_id;sensor_type;location;lat;lon;timestamp;temperature;humidity
78733;DHT22;68056;52.530;5.454;2023-07-08T00:01:55;19.20;60.80
78733;DHT22;68056;52.530;5.454;2023-07-08T00:04:21;19.20;60.80
78733;DHT22;68056;52.530;5.454;2023-07-08T00:06:47;19.20;60.80
78733;DHT22;68056;52.530;5.454;2023-07-08T00:09:13;19.20;60.90
78733;DHT22;68056;52.530;5.454;2023-07-08T00:11:39;19.20;60.90
78733;DHT22;68056;52.530;5.454;2023-07-08T00:14:04;19.20;60.90
78733;DHT22;68056;52.530;5.454;2023-07-08T00:16:30;19.10;61.00
78733;DHT22;68056;52.530;5.454;2023-07-08T00:18:56;19.10;61.10
78733;DHT22;68056;52.530;5.454;2023-07-08T00:21:21;19.10;61.10
78733;DHT22;68056;52.530;5.454;2023-07-08T00:23:48;19.10;61.10
78733;DHT22;68056;52.530;5.454;2023-07-08T00:26:25;19.00;61.20
78733;DHT22;68056;52.530;5.454;2023-07-08T00:28:51;19.00;61.30
78733;DHT22;68056;52.530;5.454;2023-07-08T00:31:17;19.00;61.30
78733;DHT22;68056;52.530;5.454;2023-07-08T00:33:52;18.90;61.30
78733;DHT22;68056;52.530;5.454;2023-07-08T00:36:20;18.90;61.30
78733;DHT22;68056;52.530;5.454;2023-07-08T00:38:46;18.90;61.30
78733;DHT22;68056;52.530;5.454;2023-07-08T00:43:54;18.90;61.30
78733;DHT22;68056;52.530;5.454;2023-07-08T00:51:28;18.80;61.50
78733;DHT22;68056;52.530;5.454;2023-07-08T00:53:53;18.80;61.40
78733;DHT22;68056;52.530;5.454;2023-07-08T00:56:26;18.80;61.40
78733;DHT22;68056;52.530;5.454;2023-07-08T00:59:42;18.80;61.40
78733;DHT22;68056;52.530;5.454;2023-07-08T01:01:48;18.80;61.40
78733;DHT22;68056;52.530;5.454;2023-07-08T01:04:31;18.80;61.40
78733;DHT22;68056;52.530;5.454;2023-07-08T01:06:59;18.70;61.50
78733;DHT22;68056;52.530;5.454;2023-07-08T01:09:36;18.70;61.50
78733;DHT22;68056;52.530;5.454;2023-07-08T01:12:06;18.70;61.50
78733;DHT22;68056;52.530;5.454;2023-07-08T01:14:35;18.70;61.50
78733;DHT22;68056;52.530;5.454;2023-07-08T01:17:03;18.70;61.50
78733;DHT22;68056;52.530;5.454;2023-07-08T01:19:28;18.70;61.50
78733;DHT22;68056;52.530;5.454;2023-07-08T01:22:04;18.70;61.50
78733;DHT22;68056;52.530;5.454;2023-07-08T01:24:32;18.60;61.60
78733;DHT22;68056;52.530;5.454;2023-07-08T01:27:00;18.60;61.60
78733;DHT22;68056;52.530;5.454;2023-07-08T01:29:26;18.60;61.60
78733;DHT22;68056;52.530;5.454;2023-07-08T01:31:55;18.60;61.60
78733;DHT22;68056;52.530;5.454;2023-07-08T01:34:21;18.50;61.70
78733;DHT22;68056;52.530;5.454;2023-07-08T01:36:50;18.50;61.70
78733;DHT22;68056;52.530;5.454;2023-07-08T01:39:19;18.50;61.70
78733;DHT22;68056;52.530;5.454;2023-07-08T01:41:45;18.50;61.80
78733;DHT22;68056;52.530;5.454;2023-07-08T01:44:27;18.40;61.80
78733;DHT22;68056;52.530;5.454;2023-07-08T01:46:59;18.40;61.80
78733;DHT22;68056;52.530;5.454;2023-07-08T01:49:26;18.40;61.90
78733;DHT22;68056;52.530;5.454;2023-07-08T01:51:52;18.40;61.90
78733;DHT22;68056;52.530;5.454;2023-07-08T01:54:18;18.30;61.90
78733;DHT22;68056;52.530;5.454;2023-07-08T01:56:43;18.30;62.00
78733;DHT22;68056;52.530;5.454;2023-07-08T01:59:09;18.30;62.00
78733;DHT22;68056;52.530;5.454;2023-07-08T02:01:35;18.30;62.00
78733;DHT22;68056;52.530;5.454;2023-07-08T02:04:00;18.30;62.10
78733;DHT22;68056;52.530;5.454;2023-07-08T02:06:26;18.20;62.10
78733;DHT22;68056;52.530;5.454;2023-07-08T02:08:51;18.20;62.10
78733;DHT22;68056;52.530;5.454;2023-07-08T02:11:17;18.20;62.20
78733;DHT22;68056;52.530;5.454;2023-07-08T02:13:43;18.20;62.20
78733;DHT22;68056;52.530;5.454;2023-07-08T02:16:08;18.10;62.30
78733;DHT22;68056;52.530;5.454;2023-07-08T02:18:34;18.10;62.30
78733;DHT22;68056;52.530;5.454;2023-07-08T02:20:59;18.10;62.30
78733;DHT22;68056;52.530;5.454;2023-07-08T02:23:26;18.10;62.40
78733;DHT22;68056;52.530;5.454;2023-07-08T02:25:53;18.10;62.40
78733;DHT22;68056;52.530;5.454;2023-07-08T02:28:19;18.10;62.50
78733;DHT22;68056;52.530;5.454;2023-07-08T02:30:45;18.00;62.50
78733;DHT22;68056;52.530;5.454;2023-07-08T02:33:12;18.00;62.50
78733;DHT22;68056;52.530;5.454;2023-07-08T02:35:38;18.00;62.50
78733;DHT22;68056;52.530;5.454;2023-07-08T02:38:03;18.00;62.50
78733;DHT22;68056;52.530;5.454;2023-07-08T02:40:30;18.00;62.50
78733;DHT22;68056;52.530;5.454;2023-07-08T02:42:55;18.00;62.60
78733;DHT22;68056;52.530;5.454;2023-07-08T02:45:21;17.90;62.60
78733;DHT22;68056;52.530;5.454;2023-07-08T02:47:46;17.80;62.60
78733;DHT22;68056;52.530;5.454;2023-07-08T02:50:12;17.80;62.60
78733;DHT22;68056;52.530;5.454;2023-07-08T02:52:38;17.80;62.60
78733;DHT22;68056;52.530;5.454;2023-07-08T02:55:05;17.80;62.60
78733;DHT22;68056;52.530;5.454;2023-07-08T02:57:30;17.80;62.60
78733;DHT22;68056;52.530;5.454;2023-07-08T02:59:56;17.80;62.70
78733;DHT22;68056;52.530;5.454;2023-07-08T03:02:22;17.80;62.80
78733;DHT22;68056;52.530;5.454;2023-07-08T03:04:48;17.70;62.80
78733;DHT22;68056;52.530;5.454;2023-07-08T03:07:16;17.70;62.80
78733;DHT22;68056;52.530;5.454;2023-07-08T03:09:42;17.70;62.80
78733;DHT22;68056;52.530;5.454;2023-07-08T03:12:10;17.70;62.70
78733;DHT22;68056;52.530;5.454;2023-07-08T03:14:36;17.60;62.80
78733;DHT22;68056;52.530;5.454;2023-07-08T03:17:02;17.60;62.80
78733;DHT22;68056;52.530;5.454;2023-07-08T03:19:28;17.60;62.80
78733;DHT22;68056;52.530;5.454;2023-07-08T03:21:54;17.60;62.70
78733;DHT22;68056;52.530;5.454;2023-07-08T03:24:19;17.60;62.80
78733;DHT22;68056;52.530;5.454;2023-07-08T03:26:45;17.60;62.80
78733;DHT22;68056;52.530;5.454;2023-07-08T03:29:15;17.60;62.80
78733;DHT22;68056;52.530;5.454;2023-07-08T03:31:41;17.50;62.80
78733;DHT22;68056;52.530;5.454;2023-07-08T03:34:15;17.50;62.90
78733;DHT22;68056;52.530;5.454;2023-07-08T03:36:49;17.50;62.80
78733;DHT22;68056;52.530;5.454;2023-07-08T03:39:20;17.50;62.90
78733;DHT22;68056;52.530;5.454;2023-07-08T03:41:48;17.50;62.80
78733;DHT22;68056;52.530;5.454;2023-07-08T03:44:14;17.50;62.70
78733;DHT22;68056;52.530;5.454;2023-07-08T03:46:43;17.50;62.80
78733;DHT22;68056;52.530;5.454;2023-07-08T03:49:09;17.50;62.80
78733;DHT22;68056;52.530;5.454;2023-07-08T03:51:37;17.50;62.90
78733;DHT22;68056;52.530;5.454;2023-07-08T03:54:04;17.50;62.90
78733;DHT22;68056;52.530;5.454;2023-07-08T03:56:30;17.50;63.00
78733;DHT22;68056;52.530;5.454;2023-07-08T03:58:56;17.40;63.00
78733;DHT22;68056;52.530;5.454;2023-07-08T04:01:24;17.40;63.00
78733;DHT22;68056;52.530;5.454;2023-07-08T04:03:52;17.50;62.90
78733;DHT22;68056;52.530;5.454;2023-07-08T04:06:18;17.40;63.00
78733;DHT22;68056;52.530;5.454;2023-07-08T04:08:45;17.40;63.00
78733;DHT22;68056;52.530;5.454;2023-07-08T04:11:20;17.40;63.00
78733;DHT22;68056;52.530;5.454;2023-07-08T04:13:46;17.40;63.10
78733;DHT22;68056;52.530;5.454;2023-07-08T04:16:25;17.40;63.10
78733;DHT22;68056;52.530;5.454;2023-07-08T04:18:53;17.40;63.10
78733;DHT22;68056;52.530;5.454;2023-07-08T04:21:19;17.40;63.00
78733;DHT22;68056;52.530;5.454;2023-07-08T04:23:45;17.40;63.00
78733;DHT22;68056;52.530;5.454;2023-07-08T04:26:11;17.40;63.10
78733;DHT22;68056;52.530;5.454;2023-07-08T04:28:37;17.40;63.00
78733;DHT22;68056;52.530;5.454;2023-07-08T04:31:02;17.40;63.10
78733;DHT22;68056;52.530;5.454;2023-07-08T04:33:29;17.40;63.20
78733;DHT22;68056;52.530;5.454;2023-07-08T04:35:55;17.40;63.20
78733;DHT22;68056;52.530;5.454;2023-07-08T04:38:23;17.40;63.20
78733;DHT22;68056;52.530;5.454;2023-07-08T04:40:50;17.40;63.20
78733;DHT22;68056;52.530;5.454;2023-07-08T04:43:16;17.40;63.10
78733;DHT22;68056;52.530;5.454;2023-07-08T04:45:45;17.40;63.10
78733;DHT22;68056;52.530;5.454;2023-07-08T04:48:15;17.40;63.10
78733;DHT22;68056;52.530;5.454;2023-07-08T04:50:46;17.40;63.10
78733;DHT22;68056;52.530;5.454;2023-07-08T04:53:12;17.50;63.10
78733;DHT22;68056;52.530;5.454;2023-07-08T04:55:41;17.50;63.10
78733;DHT22;68056;52.530;5.454;2023-07-08T04:58:08;17.50;63.20
78733;DHT22;68056;52.530;5.454;2023-07-08T05:00:34;17.50;63.10
78733;DHT22;68056;52.530;5.454;2023-07-08T05:02:59;17.50;63.20
78733;DHT22;68056;52.530;5.454;2023-07-08T05:05:25;17.50;63.10
78733;DHT22;68056;52.530;5.454;2023-07-08T05:07:51;17.60;63.00
78733;DHT22;68056;52.530;5.454;2023-07-08T05:10:18;17.60;63.00
78733;DHT22;68056;52.530;5.454;2023-07-08T05:12:44;17.70;63.00
78733;DHT22;68056;52.530;5.454;2023-07-08T05:15:10;17.70;62.90
78733;DHT22;68056;52.530;5.454;2023-07-08T05:17:37;17.80;62.90
78733;DHT22;68056;52.530;5.454;2023-07-08T05:20:04;17.80;62.80
78733;DHT22;68056;52.530;5.454;2023-07-08T05:22:30;17.80;62.80
78733;DHT22;68056;52.530;5.454;2023-07-08T05:24:56;17.90;62.80
78733;DHT22;68056;52.530;5.454;2023-07-08T05:27:22;18.00;62.60
78733;DHT22;68056;52.530;5.454;2023-07-08T05:29:49;18.00;62.70
78733;DHT22;68056;52.530;5.454;2023-07-08T05:32:15;18.00;62.60
78733;DHT22;68056;52.530;5.454;2023-07-08T05:34:41;18.10;62.50
78733;DHT22;68056;52.530;5.454;2023-07-08T05:37:07;18.10;62.50
78733;DHT22;68056;52.530;5.454;2023-07-08T05:39:33;18.20;62.40
78733;DHT22;68056;52.530;5.454;2023-07-08T05:41:58;18.30;62.30
78733;DHT22;68056;52.530;5.454;2023-07-08T05:44:24;18.30;62.30
78733;DHT22;68056;52.530;5.454;2023-07-08T05:46:50;18.40;62.20
78733;DHT22;68056;52.530;5.454;2023-07-08T05:49:16;18.50;62.10
78733;DHT22;68056;52.530;5.454;2023-07-08T05:51:43;18.50;62.10
78733;DHT22;68056;52.530;5.454;2023-07-08T05:54:09;18.60;62.00
78733;DHT22;68056;52.530;5.454;2023-07-08T05:56:34;18.70;61.90
78733;DHT22;68056;52.530;5.454;2023-07-08T05:59:00;18.80;61.80
78733;DHT22;68056;52.530;5.454;2023-07-08T06:01:26;18.90;61.70
78733;DHT22;68056;52.530;5.454;2023-07-08T06:03:51;19.10;61.50
78733;DHT22;68056;52.530;5.454;2023-07-08T06:06:17;19.30;61.20
78733;DHT22;68056;52.530;5.454;2023-07-08T06:08:43;19.50;61.10
78733;DHT22;68056;52.530;5.454;2023-07-08T06:11:10;19.70;60.80
78733;DHT22;68056;52.530;5.454;2023-07-08T06:13:35;19.90;60.70
78733;DHT22;68056;52.530;5.454;2023-07-08T06:16:01;20.00;60.50
78733;DHT22;68056;52.530;5.454;2023-07-08T06:18:26;20.30;60.20
78733;DHT22;68056;52.530;5.454;2023-07-08T06:20:53;20.30;60.00
78733;DHT22;68056;52.530;5.454;2023-07-08T06:23:19;20.50;59.80
78733;DHT22;68056;52.530;5.454;2023-07-08T06:25:46;20.60;59.60
78733;DHT22;68056;52.530;5.454;2023-07-08T06:28:12;20.80;59.50
78733;DHT22;68056;52.530;5.454;2023-07-08T06:30:38;21.00;59.30
78733;DHT22;68056;52.530;5.454;2023-07-08T06:33:04;21.10;59.20
78733;DHT22;68056;52.530;5.454;2023-07-08T06:35:30;21.30;58.90
78733;DHT22;68056;52.530;5.454;2023-07-08T06:37:56;21.40;58.60
78733;DHT22;68056;52.530;5.454;2023-07-08T06:40:22;21.50;58.50
78733;DHT22;68056;52.530;5.454;2023-07-08T06:42:47;21.70;58.30
78733;DHT22;68056;52.530;5.454;2023-07-08T06:45:13;21.80;58.30
78733;DHT22;68056;52.530;5.454;2023-07-08T06:47:39;22.00;58.20
78733;DHT22;68056;52.530;5.454;2023-07-08T06:50:05;22.20;58.10
78733;DHT22;68056;52.530;5.454;2023-07-08T06:52:33;22.30;58.00
78733;DHT22;68056;52.530;5.454;2023-07-08T06:55:01;22.50;57.80
78733;DHT22;68056;52.530;5.454;2023-07-08T06:57:27;22.60;57.70
78733;DHT22;68056;52.530;5.454;2023-07-08T06:59:53;22.70;57.50
78733;DHT22;68056;52.530;5.454;2023-07-08T07:02:18;22.80;57.30
78733;DHT22;68056;52.530;5.454;2023-07-08T07:04:45;22.90;57.20
78733;DHT22;68056;52.530;5.454;2023-07-08T07:07:11;23.00;56.90
78733;DHT22;68056;52.530;5.454;2023-07-08T07:09:36;23.10;56.70
78733;DHT22;68056;52.530;5.454;2023-07-08T07:12:02;23.20;56.60
78733;DHT22;68056;52.530;5.454;2023-07-08T07:14:28;23.30;56.40
78733;DHT22;68056;52.530;5.454;2023-07-08T07:16:54;23.50;56.50
78733;DHT22;68056;52.530;5.454;2023-07-08T07:19:20;23.70;56.30
78733;DHT22;68056;52.530;5.454;2023-07-08T07:21:47;23.80;55.80
78733;DHT22;68056;52.530;5.454;2023-07-08T07:24:12;23.90;55.80
78733;DHT22;68056;52.530;5.454;2023-07-08T07:26:38;24.00;55.60
78733;DHT22;68056;52.530;5.454;2023-07-08T07:29:04;24.10;55.70
78733;DHT22;68056;52.530;5.454;2023-07-08T07:31:30;24.40;55.60
78733;DHT22;68056;52.530;5.454;2023-07-08T07:33:58;24.60;55.30
78733;DHT22;68056;52.530;5.454;2023-07-08T07:36:24;24.80;54.70
78733;DHT22;68056;52.530;5.454;2023-07-08T07:38:51;24.90;54.40
78733;DHT22;68056;52.530;5.454;2023-07-08T07:41:16;25.00;54.20
78733;DHT22;68056;52.530;5.454;2023-07-08T07:43:42;25.10;54.10
78733;DHT22;68056;52.530;5.454;2023-07-08T07:46:08;25.20;54.40
78733;DHT22;68056;52.530;5.454;2023-07-08T07:48:34;25.50;54.20
78733;DHT22;68056;52.530;5.454;2023-07-08T07:51:01;25.80;53.80
78733;DHT22;68056;52.530;5.454;2023-07-08T07:53:26;26.00;53.40
78733;DHT22;68056;52.530;5.454;2023-07-08T07:56:00;26.00;53.10
78733;DHT22;68056;52.530;5.454;2023-07-08T07:58:29;26.20;53.00
78733;DHT22;68056;52.530;5.454;2023-07-08T08:00:55;26.20;52.80
78733;DHT22;68056;52.530;5.454;2023-07-08T08:03:24;26.20;52.60
78733;DHT22;68056;52.530;5.454;2023-07-08T08:05:50;26.20;52.70
78733;DHT22;68056;52.530;5.454;2023-07-08T08:08:16;26.40;52.60
78733;DHT22;68056;52.530;5.454;2023-07-08T08:10:43;26.60;52.60
78733;DHT22;68056;52.530;5.454;2023-07-08T08:13:08;26.90;52.70
78733;DHT22;68056;52.530;5.454;2023-07-08T08:15:35;27.10;52.50
78733;DHT22;68056;52.530;5.454;2023-07-08T08:18:01;27.40;52.40
78733;DHT22;68056;52.530;5.454;2023-07-08T08:20:28;27.50;51.60
78733;DHT22;68056;52.530;5.454;2023-07-08T08:22:54;27.70;51.20
78733;DHT22;68056;52.530;5.454;2023-07-08T08:25:21;27.80;50.80
78733;DHT22;68056;52.530;5.454;2023-07-08T08:27:47;27.90;51.00
78733;DHT22;68056;52.530;5.454;2023-07-08T08:30:12;28.10;51.30
78733;DHT22;68056;52.530;5.454;2023-07-08T08:32:38;28.30;51.20
78733;DHT22;68056;52.530;5.454;2023-07-08T08:35:04;28.50;50.90
78733;DHT22;68056;52.530;5.454;2023-07-08T08:37:30;28.50;50.50
78733;DHT22;68056;52.530;5.454;2023-07-08T08:39:56;28.70;50.20
78733;DHT22;68056;52.530;5.454;2023-07-08T08:42:40;28.90;49.70
78733;DHT22;68056;52.530;5.454;2023-07-08T08:45:11;28.90;49.50
78733;DHT22;68056;52.530;5.454;2023-07-08T08:47:41;28.90;49.40
78733;DHT22;68056;52.530;5.454;2023-07-08T08:50:31;28.90;49.60
78733;DHT22;68056;52.530;5.454;2023-07-08T08:53:01;29.10;49.70
78733;DHT22;68056;52.530;5.454;2023-07-08T08:55:28;29.30;49.40
78733;DHT22;68056;52.530;5.454;2023-07-08T08:58:30;29.40;49.10
78733;DHT22;68056;52.530;5.454;2023-07-08T09:01:12;29.60;48.90
78733;DHT22;68056;52.530;5.454;2023-07-08T09:03:57;29.70;48.60
78733;DHT22;68056;52.530;5.454;2023-07-08T09:06:27;29.90;48.80
78733;DHT22;68056;52.530;5.454;2023-07-08T09:08:54;30.10;48.90
78733;DHT22;68056;52.530;5.454;2023-07-08T09:11:45;30.30;48.60
78733;DHT22;68056;52.530;5.454;2023-07-08T09:14:24;30.50;48.20
78733;DHT22;68056;52.530;5.454;2023-07-08T09:19:44;30.60;48.20
78733;DHT22;68056;52.530;5.454;2023-07-08T09:22:25;30.80;48.10
78733;DHT22;68056;52.530;5.454;2023-07-08T09:27:32;30.90;47.40
78733;DHT22;68056;52.530;5.454;2023-07-08T09:29:58;31.10;47.50
78733;DHT22;68056;52.530;5.454;2023-07-08T09:32:26;31.40;47.50
78733;DHT22;68056;52.530;5.454;2023-07-08T09:34:53;31.60;47.40
78733;DHT22;68056;52.530;5.454;2023-07-08T09:37:31;31.80;47.10
78733;DHT22;68056;52.530;5.454;2023-07-08T09:39:59;31.90;47.00
78733;DHT22;68056;52.530;5.454;2023-07-08T09:42:30;32.00;46.80
78733;DHT22;68056;52.530;5.454;2023-07-08T09:44:59;32.10;47.10
78733;DHT22;68056;52.530;5.454;2023-07-08T09:47:27;32.30;47.00
78733;DHT22;68056;52.530;5.454;2023-07-08T09:49:58;32.50;46.80
78733;DHT22;68056;52.530;5.454;2023-07-08T09:52:24;32.50;46.70
78733;DHT22;68056;52.530;5.454;2023-07-08T09:54:50;32.70;46.80
78733;DHT22;68056;52.530;5.454;2023-07-08T09:57:25;33.00;46.50
78733;DHT22;68056;52.530;5.454;2023-07-08T09:59:57;33.20;46.30
78733;DHT22;68056;52.530;5.454;2023-07-08T10:05:00;33.60;45.30
78733;DHT22;68056;52.530;5.454;2023-07-08T10:07:30;33.60;45.40
78733;DHT22;68056;52.530;5.454;2023-07-08T10:10:00;33.80;45.20
78733;DHT22;68056;52.530;5.454;2023-07-08T10:12:27;33.70;44.70
78733;DHT22;68056;52.530;5.454;2023-07-08T10:15:00;33.60;44.70
78733;DHT22;68056;52.530;5.454;2023-07-08T10:17:28;33.60;44.60
78733;DHT22;68056;52.530;5.454;2023-07-08T10:19:55;33.70;44.60
78733;DHT22;68056;52.530;5.454;2023-07-08T10:22:34;33.70;44.70
78733;DHT22;68056;52.530;5.454;2023-07-08T10:27:56;34.00;44.80
78733;DHT22;68056;52.530;5.454;2023-07-08T10:30:23;34.20;44.40
78733;DHT22;68056;52.530;5.454;2023-07-08T10:39:10;34.50;44.30
78733;DHT22;68056;52.530;5.454;2023-07-08T10:44:16;34.70;44.50
78733;DHT22;68056;52.530;5.454;2023-07-08T10:52:47;34.60;43.70
78733;DHT22;68056;52.530;5.454;2023-07-08T10:55:28;34.70;43.70
78733;DHT22;68056;52.530;5.454;2023-07-08T10:57:59;35.00;43.80
78733;DHT22;68056;52.530;5.454;2023-07-08T11:11:26;35.60;42.90
78733;DHT22;68056;52.530;5.454;2023-07-08T11:14:10;35.60;42.80
78733;DHT22;68056;52.530;5.454;2023-07-08T11:16:45;35.50;42.90
78733;DHT22;68056;52.530;5.454;2023-07-08T11:19:38;35.50;43.30
78733;DHT22;68056;52.530;5.454;2023-07-08T11:22:11;35.70;42.50
78733;DHT22;68056;52.530;5.454;2023-07-08T11:24:49;35.70;42.30
78733;DHT22;68056;52.530;5.454;2023-07-08T11:27:26;35.60;42.20
78733;DHT22;68056;52.530;5.454;2023-07-08T11:30:04;35.50;42.50
78733;DHT22;68056;52.530;5.454;2023-07-08T11:32:33;35.70;42.80
78733;DHT22;68056;52.530;5.454;2023-07-08T11:35:02;35.80;43.40
78733;DHT22;68056;52.530;5.454;2023-07-08T11:37:30;36.10;42.90
78733;DHT22;68056;52.530;5.454;2023-07-08T11:40:17;36.30;42.70
78733;DHT22;68056;52.530;5.454;2023-07-08T11:42:47;36.50;42.20
78733;DHT22;68056;52.530;5.454;2023-07-08T11:45:35;36.50;42.10
78733;DHT22;68056;52.530;5.454;2023-07-08T11:48:22;36.60;42.20
78733;DHT22;68056;52.530;5.454;2023-07-08T11:50:50;36.70;41.60
78733;DHT22;68056;52.530;5.454;2023-07-08T11:56:18;36.60;40.90
78733;DHT22;68056;52.530;5.454;2023-07-08T12:03:53;37.00;40.30
78733;DHT22;68056;52.530;5.454;2023-07-08T12:08:54;37.30;40.20
78733;DHT22;68056;52.530;5.454;2023-07-08T12:11:33;37.40;39.80
78733;DHT22;68056;52.530;5.454;2023-07-08T12:14:16;37.50;39.80
78733;DHT22;68056;52.530;5.454;2023-07-08T12:16:42;37.70;39.70
78733;DHT22;68056;52.530;5.454;2023-07-08T12:19:13;37.70;39.70
78733;DHT22;68056;52.530;5.454;2023-07-08T12:21:43;37.70;39.70
78733;DHT22;68056;52.530;5.454;2023-07-08T12:24:13;37.80;39.30
78733;DHT22;68056;52.530;5.454;2023-07-08T12:26:50;37.80;39.50
78733;DHT22;68056;52.530;5.454;2023-07-08T12:29:16;37.80;39.00
78733;DHT22;68056;52.530;5.454;2023-07-08T12:31:46;37.90;39.40
78733;DHT22;68056;52.530;5.454;2023-07-08T12:34:19;37.90;39.80
78733;DHT22;68056;52.530;5.454;2023-07-08T12:36:53;38.00;39.40
78733;DHT22;68056;52.530;5.454;2023-07-08T12:39:20;37.80;39.10
78733;DHT22;68056;52.530;5.454;2023-07-08T12:41:52;37.80;39.00
78733;DHT22;68056;52.530;5.454;2023-07-08T12:44:26;37.80;39.60
78733;DHT22;68056;52.530;5.454;2023-07-08T12:46:55;37.90;39.70
78733;DHT22;68056;52.530;5.454;2023-07-08T12:49:21;38.00;39.20
78733;DHT22;68056;52.530;5.454;2023-07-08T12:51:54;38.00;39.20
78733;DHT22;68056;52.530;5.454;2023-07-08T12:54:20;38.00;38.90
78733;DHT22;68056;52.530;5.454;2023-07-08T12:56:57;38.00;38.70
78733;DHT22;68056;52.530;5.454;2023-07-08T12:59:33;37.90;38.60
78733;DHT22;68056;52.530;5.454;2023-07-08T13:02:19;37.80;38.60
78733;DHT22;68056;52.530;5.454;2023-07-08T13:04:49;37.70;39.20
78733;DHT22;68056;52.530;5.454;2023-07-08T13:07:25;37.80;39.40
78733;DHT22;68056;52.530;5.454;2023-07-08T13:09:54;37.90;39.30
78733;DHT22;68056;52.530;5.454;2023-07-08T13:12:26;38.00;39.40
78733;DHT22;68056;52.530;5.454;2023-07-08T13:14:53;38.10;39.10
78733;DHT22;68056;52.530;5.454;2023-07-08T13:17:26;38.10;38.30
78733;DHT22;68056;52.530;5.454;2023-07-08T13:19:52;38.00;38.60
78733;DHT22;68056;52.530;5.454;2023-07-08T13:22:20;37.90;38.80
78733;DHT22;68056;52.530;5.454;2023-07-08T13:24:47;37.80;39.20
78733;DHT22;68056;52.530;5.454;2023-07-08T13:27:24;37.80;39.00
78733;DHT22;68056;52.530;5.454;2023-07-08T13:30:15;37.80;39.40
78733;DHT22;68056;52.530;5.454;2023-07-08T13:32:42;37.80;39.50
78733;DHT22;68056;52.530;5.454;2023-07-08T13:35:26;37.90;39.10
78733;DHT22;68056;52.530;5.454;2023-07-08T13:37:53;37.90;38.70
78733;DHT22;68056;52.530;5.454;2023-07-08T13:40:19;37.90;38.40
78733;DHT22;68056;52.530;5.454;2023-07-08T13:42:52;37.80;38.90
78733;DHT22;68056;52.530;5.454;2023-07-08T13:45:30;38.00;38.60
78733;DHT22;68056;52.530;5.454;2023-07-08T13:51:11;38.10;38.10
78733;DHT22;68056;52.530;5.454;2023-07-08T13:56:32;38.30;37.70
78733;DHT22;68056;52.530;5.454;2023-07-08T13:59:06;38.30;37.70
78733;DHT22;68056;52.530;5.454;2023-07-08T14:01:34;38.10;37.60
78733;DHT22;68056;52.530;5.454;2023-07-08T14:04:18;37.90;37.80
78733;DHT22;68056;52.530;5.454;2023-07-08T14:06:45;37.90;37.40
78733;DHT22;68056;52.530;5.454;2023-07-08T14:09:23;37.90;37.70
78733;DHT22;68056;52.530;5.454;2023-07-08T14:11:50;38.00;38.00
78733;DHT22;68056;52.530;5.454;2023-07-08T14:14:16;38.10;37.90
78733;DHT22;68056;52.530;5.454;2023-07-08T14:16:50;38.20;38.10
78733;DHT22;68056;52.530;5.454;2023-07-08T14:19:23;38.30;37.70
78733;DHT22;68056;52.530;5.454;2023-07-08T14:21:53;38.10;37.90
78733;DHT22;68056;52.530;5.454;2023-07-08T14:24:20;38.20;38.10
78733;DHT22;68056;52.530;5.454;2023-07-08T14:26:45;38.20;38.00
78733;DHT22;68056;52.530;5.454;2023-07-08T14:29:11;38.10;38.10
78733;DHT22;68056;52.530;5.454;2023-07-08T14:31:38;38.10;37.90
78733;DHT22;68056;52.530;5.454;2023-07-08T14:39:43;37.80;38.20
78733;DHT22;68056;52.530;5.454;2023-07-08T14:42:13;38.00;38.00
78733;DHT22;68056;52.530;5.454;2023-07-08T14:44:51;38.10;38.20
78733;DHT22;68056;52.530;5.454;2023-07-08T14:47:19;38.20;38.60
78733;DHT22;68056;52.530;5.454;2023-07-08T14:49:45;38.20;38.50
78733;DHT22;68056;52.530;5.454;2023-07-08T14:52:14;38.10;38.30
78733;DHT22;68056;52.530;5.454;2023-07-08T14:54:39;38.00;38.10
78733;DHT22;68056;52.530;5.454;2023-07-08T14:57:06;37.90;38.30
78733;DHT22;68056;52.530;5.454;2023-07-08T14:59:35;37.90;38.30
78733;DHT22;68056;52.530;5.454;2023-07-08T15:02:16;37.90;38.30
78733;DHT22;68056;52.530;5.454;2023-07-08T15:04:44;37.90;38.40
78733;DHT22;68056;52.530;5.454;2023-07-08T15:07:10;37.80;38.00
78733;DHT22;68056;52.530;5.454;2023-07-08T15:09:36;37.60;37.80
78733;DHT22;68056;52.530;5.454;2023-07-08T15:12:02;37.50;38.20
78733;DHT22;68056;52.530;5.454;2023-07-08T15:14:36;37.30;38.90
78733;DHT22;68056;52.530;5.454;2023-07-08T15:17:10;37.30;39.30
78733;DHT22;68056;52.530;5.454;2023-07-08T15:19:52;37.30;38.80
78733;DHT22;68056;52.530;5.454;2023-07-08T15:22:18;37.30;38.60
78733;DHT22;68056;52.530;5.454;2023-07-08T15:24:44;37.20;38.50
78733;DHT22;68056;52.530;5.454;2023-07-08T15:27:12;37.10;38.60
78733;DHT22;68056;52.530;5.454;2023-07-08T15:29:39;36.90;38.60
78733;DHT22;68056;52.530;5.454;2023-07-08T15:32:12;36.80;39.10
78733;DHT22;68056;52.530;5.454;2023-07-08T15:34:38;36.80;39.10
78733;DHT22;68056;52.530;5.454;2023-07-08T15:37:04;36.60;39.00
78733;DHT22;68056;52.530;5.454;2023-07-08T15:39:29;36.50;39.00
78733;DHT22;68056;52.530;5.454;2023-07-08T15:41:55;36.20;39.00
78733;DHT22;68056;52.530;5.454;2023-07-08T15:44:20;36.10;39.00
78733;DHT22;68056;52.530;5.454;2023-07-08T15:46:48;36.00;39.20
78733;DHT22;68056;52.530;5.454;2023-07-08T15:49:21;36.00;39.20
78733;DHT22;68056;52.530;5.454;2023-07-08T15:51:49;36.00;39.40
78733;DHT22;68056;52.530;5.454;2023-07-08T15:54:16;36.00;39.50
78733;DHT22;68056;52.530;5.454;2023-07-08T15:56:42;35.90;39.50
78733;DHT22;68056;52.530;5.454;2023-07-08T15:59:11;35.80;39.70
78733;DHT22;68056;52.530;5.454;2023-07-08T16:01:39;35.70;39.60
78733;DHT22;68056;52.530;5.454;2023-07-08T16:04:05;35.60;39.70
78733;DHT22;68056;52.530;5.454;2023-07-08T16:06:34;35.60;39.60
78733;DHT22;68056;52.530;5.454;2023-07-08T16:08:59;35.40;39.70
78733;DHT22;68056;52.530;5.454;2023-07-08T16:11:30;35.30;39.80
78733;DHT22;68056;52.530;5.454;2023-07-08T16:14:12;35.10;40.10
78733;DHT22;68056;52.530;5.454;2023-07-08T16:16:38;35.00;40.30
78733;DHT22;68056;52.530;5.454;2023-07-08T16:19:04;35.00;40.30
78733;DHT22;68056;52.530;5.454;2023-07-08T16:21:30;35.00;40.60
78733;DHT22;68056;52.530;5.454;2023-07-08T16:23:55;35.00;40.60
78733;DHT22;68056;52.530;5.454;2023-07-08T16:26:21;35.00;40.80
78733;DHT22;68056;52.530;5.454;2023-07-08T16:28:48;35.00;40.50
78733;DHT22;68056;52.530;5.454;2023-07-08T16:31:20;34.80;40.60
78733;DHT22;68056;52.530;5.454;2023-07-08T16:33:47;34.80;40.60
78733;DHT22;68056;52.530;5.454;2023-07-08T16:36:15;34.80;40.60
78733;DHT22;68056;52.530;5.454;2023-07-08T16:38:41;34.70;41.00
78733;DHT22;68056;52.530;5.454;2023-07-08T16:41:18;34.70;40.90
78733;DHT22;68056;52.530;5.454;2023-07-08T16:43:45;34.50;40.80
78733;DHT22;68056;52.530;5.454;2023-07-08T16:46:12;34.30;41.10
78733;DHT22;68056;52.530;5.454;2023-07-08T16:48:38;34.20;41.70